sensor_id;sensor_type;location;lat;lon;timestamp;pressure;altitude;pressure_sealevel;temperature;humidity
55460;BME280;41326;45.302;-122.946;2022-11-20T00:00:39;101812.62;;;16.78;48.35
55460;BME280;41326;45.302;-122.946;2022-11-20T00:03:09;101816.13;;;16.74;48.50
55460;BME280;41326;45.302;-122.946;2022-11-20T00:05:39;101809.62;;;16.79;48.22
55460;BME280;41326;45.302;-122.946;2022-11-20T00:08:11;101814.95;;;17.03;47.62
55460;BME280;41326;45.302;-122.946;2022-11-20T00:10:42;101809.01;;;17.25;47.07
55460;BME280;41326;45.302;-122.946;2022-11-20T00:13:11;101807.65;;;17.26;47.09
55460;BME280;41326;45.302;-122.946;2022-11-20T00:15:42;101806.13;;;17.27;47.10
55460;BME280;41326;45.302;-122.946;2022-11-20T00:18:12;101811.75;;;17.20;47.31
55460;BME280;41326;45.302;-122.946;2022-11-20T00:20:42;101812.11;;;17.15;47.48
55460;BME280;41326;45.302;-122.946;2022-11-20T00:23:13;101813.90;;;17.10;47.61
55460;BME280;41326;45.302;-122.946;2022-11-20T00:25:43;101815.44;;;17.05;47.83
55460;BME280;41326;45.302;-122.946;2022-11-20T00:28:14;101815.80;;;17.05;47.74
55460;BME280;41326;45.302;-122.946;2022-11-20T00:30:44;101816.59;;;17.05;47.71
55460;BME280;41326;45.302;-122.946;2022-11-20T00:33:14;101819.50;;;17.03;47.82
55460;BME280;41326;45.302;-122.946;2022-11-20T00:35:45;101816.51;;;16.99;48.01
55460;BME280;41326;45.302;-122.946;2022-11-20T00:38:15;101813.99;;;16.94;48.10
55460;BME280;41326;45.302;-122.946;2022-11-20T00:40:45;101813.55;;;16.92;48.14
55460;BME280;41326;45.302;-122.946;2022-11-20T00:43:15;101814.24;;;17.10;47.54
55460;BME280;41326;45.302;-122.946;2022-11-20T00:45:45;101812.11;;;17.31;47.04
55460;BME280;41326;45.302;-122.946;2022-11-20T00:48:16;101811.59;;;17.51;46.62
55460;BME280;41326;45.302;-122.946;2022-11-20T00:50:47;101816.14;;;17.75;46.11
55460;BME280;41326;45.302;-122.946;2022-11-20T00:53:17;101820.34;;;17.97;45.63
55460;BME280;41326;45.302;-122.946;2022-11-20T00:58:18;101829.19;;;18.08;45.40
55460;BME280;41326;45.302;-122.946;2022-11-20T01:00:48;101829.32;;;18.02;45.58
55460;BME280;41326;45.302;-122.946;2022-11-20T01:03:18;101830.69;;;18.05;45.44
55460;BME280;41326;45.302;-122.946;2022-11-20T01:05:48;101831.36;;;18.19;45.12
55460;BME280;41326;45.302;-122.946;2022-11-20T01:08:18;101825.72;;;18.33;44.88
55460;BME280;41326;45.302;-122.946;2022-11-20T01:10:48;101829.26;;;18.47;44.59
55460;BME280;41326;45.302;-122.946;2022-11-20T01:13:19;101830.22;;;18.60;44.35
55460;BME280;41326;45.302;-122.946;2022-11-20T01:15:49;101828.63;;;18.55;44.53
55460;BME280;41326;45.302;-122.946;2022-11-20T01:18:21;101832.87;;;18.45;44.84
55460;BME280;41326;45.302;-122.946;2022-11-20T01:20:50;101838.45;;;18.33;45.14
55460;BME280;41326;45.302;-122.946;2022-11-20T01:23:20;101844.30;;;18.39;44.88
55460;BME280;41326;45.302;-122.946;2022-11-20T01:25:51;101846.33;;;18.46;44.93
55460;BME280;41326;45.302;-122.946;2022-11-20T01:28:21;101845.35;;;18.68;44.46
55460;BME280;41326;45.302;-122.946;2022-11-20T01:30:52;101844.40;;;18.72;44.50
55460;BME280;41326;45.302;-122.946;2022-11-20T01:33:23;101845.36;;;18.62;45.08
55460;BME280;41326;45.302;-122.946;2022-11-20T01:35:53;101848.87;;;18.35;45.35
55460;BME280;41326;45.302;-122.946;2022-11-20T01:38:24;101851.48;;;18.10;45.86
55460;BME280;41326;45.302;-122.946;2022-11-20T01:40:58;101851.83;;;18.24;44.98
55460;BME280;41326;45.302;-122.946;2022-11-20T01:43:25;101851.77;;;18.32;44.40
55460;BME280;41326;45.302;-122.946;2022-11-20T01:46:02;101849.44;;;18.45;43.58
55460;BME280;41326;45.302;-122.946;2022-11-20T01:48:28;101848.16;;;18.63;43.70
55460;BME280;41326;45.302;-122.946;2022-11-20T01:50:56;101848.72;;;18.60;44.20
55460;BME280;41326;45.302;-122.946;2022-11-20T01:53:29;101849.46;;;18.61;44.51
55460;BME280;41326;45.302;-122.946;2022-11-20T01:55:59;101859.96;;;18.49;45.20
55460;BME280;41326;45.302;-122.946;2022-11-20T01:58:30;101867.85;;;18.39;45.73
55460;BME280;41326;45.302;-122.946;2022-11-20T02:00:58;101869.73;;;18.41;45.81
55460;BME280;41326;45.302;-122.946;2022-11-20T02:03:27;101873.79;;;18.33;45.94
55460;BME280;41326;45.302;-122.946;2022-11-20T02:06:04;101875.07;;;18.26;46.20
55460;BME280;41326;45.302;-122.946;2022-11-20T02:08:29;101880.07;;;18.20;46.47
55460;BME280;41326;45.302;-122.946;2022-11-20T02:10:58;101884.01;;;18.27;46.25
55460;BME280;41326;45.302;-122.946;2022-11-20T02:13:29;101882.26;;;18.45;45.76
55460;BME280;41326;45.302;-122.946;2022-11-20T02:15:59;101888.16;;;18.60;45.54
55460;BME280;41326;45.302;-122.946;2022-11-20T02:18:29;101885.89;;;18.58;45.83
55460;BME280;41326;45.302;-122.946;2022-11-20T02:21:05;101885.41;;;18.54;46.06
55460;BME280;41326;45.302;-122.946;2022-11-20T02:23:32;101887.49;;;18.43;46.38
55460;BME280;41326;45.302;-122.946;2022-11-20T02:26:01;101881.93;;;18.38;46.50
55460;BME280;41326;45.302;-122.946;2022-11-20T02:28:30;101880.84;;;18.32;46.53
55460;BME280;41326;45.302;-122.946;2022-11-20T02:31:01;101878.04;;;18.31;46.45
55460;BME280;41326;45.302;-122.946;2022-11-20T02:33:31;101876.70;;;18.25;46.54
55460;BME280;41326;45.302;-122.946;2022-11-20T02:36:02;101882.43;;;18.19;46.66
55460;BME280;41326;45.302;-122.946;2022-11-20T02:38:31;101884.12;;;18.26;46.21
55460;BME280;41326;45.302;-122.946;2022-11-20T02:41:01;101881.94;;;18.39;45.99
55460;BME280;41326;45.302;-122.946;2022-11-20T02:43:32;101880.16;;;18.62;45.25
55460;BME280;41326;45.302;-122.946;2022-11-20T02:46:02;101882.66;;;18.57;45.44
55460;BME280;41326;45.302;-122.946;2022-11-20T02:48:32;101883.54;;;18.58;45.33
55460;BME280;41326;45.302;-122.946;2022-11-20T02:51:03;101882.90;;;18.49;45.51
55460;BME280;41326;45.302;-122.946;2022-11-20T02:53:33;101882.69;;;18.43;45.54
55460;BME280;41326;45.302;-122.946;2022-11-20T02:56:04;101881.07;;;18.52;45.30
55460;BME280;41326;45.302;-122.946;2022-11-20T02:58:34;101890.68;;;18.70;44.81
55460;BME280;41326;45.302;-122.946;2022-11-20T03:01:05;101894.08;;;18.77;44.71
55460;BME280;41326;45.302;-122.946;2022-11-20T03:03:35;101895.08;;;18.72;44.80
55460;BME280;41326;45.302;-122.946;2022-11-20T03:06:05;101897.15;;;18.58;45.19
55460;BME280;41326;45.302;-122.946;2022-11-20T03:08:35;101900.55;;;18.50;45.32
55460;BME280;41326;45.302;-122.946;2022-11-20T03:11:08;101899.30;;;18.48;45.35
55460;BME280;41326;45.302;-122.946;2022-11-20T03:13:36;101895.72;;;18.49;45.14
55460;BME280;41326;45.302;-122.946;2022-11-20T03:16:11;101902.26;;;18.65;44.76
55460;BME280;41326;45.302;-122.946;2022-11-20T03:18:36;101900.98;;;18.76;44.51
55460;BME280;41326;45.302;-122.946;2022-11-20T03:21:06;101903.12;;;18.70;44.74
55460;BME280;41326;45.302;-122.946;2022-11-20T03:23:38;101909.85;;;18.64;44.92
55460;BME280;41326;45.302;-122.946;2022-11-20T03:26:12;101912.04;;;18.53;45.20
55460;BME280;41326;45.302;-122.946;2022-11-20T03:28:37;101913.92;;;18.47;45.33
55460;BME280;41326;45.302;-122.946;2022-11-20T03:31:11;101913.36;;;18.56;44.92
55460;BME280;41326;45.302;-122.946;2022-11-20T03:33:38;101914.69;;;18.65;44.72
55460;BME280;41326;45.302;-122.946;2022-11-20T03:36:10;101917.09;;;18.73;44.50
55460;BME280;41326;45.302;-122.946;2022-11-20T03:38:38;101925.26;;;18.69;44.66
55460;BME280;41326;45.302;-122.946;2022-11-20T03:41:11;101925.70;;;18.60;44.94
55460;BME280;41326;45.302;-122.946;2022-11-20T03:43:40;101927.15;;;18.50;45.22
55460;BME280;41326;45.302;-122.946;2022-11-20T03:46:10;101930.48;;;18.42;45.36
55460;BME280;41326;45.302;-122.946;2022-11-20T03:48:39;101932.62;;;18.39;45.37
55460;BME280;41326;45.302;-122.946;2022-11-20T03:51:15;101941.12;;;18.44;45.05
55460;BME280;41326;45.302;-122.946;2022-11-20T03:53:41;101939.42;;;18.60;44.62
55460;BME280;41326;45.302;-122.946;2022-11-20T03:56:12;101942.89;;;18.69;44.40
55460;BME280;41326;45.302;-122.946;2022-11-20T03:58:41;101937.03;;;18.62;44.70
55460;BME280;41326;45.302;-122.946;2022-11-20T04:01:13;101933.68;;;18.55;44.88
55460;BME280;41326;45.302;-122.946;2022-11-20T04:03:42;101933.41;;;18.44;45.17
55460;BME280;41326;45.302;-122.946;2022-11-20T04:06:15;101932.76;;;18.38;45.32
55460;BME280;41326;45.302;-122.946;2022-11-20T04:08:42;101934.70;;;18.33;45.34
55460;BME280;41326;45.302;-122.946;2022-11-20T04:11:15;101933.51;;;18.39;45.00
55460;BME280;41326;45.302;-122.946;2022-11-20T04:13:45;101932.06;;;18.58;44.47
55460;BME280;41326;45.302;-122.946;2022-11-20T04:16:14;101930.48;;;18.65;44.36
55460;BME280;41326;45.302;-122.946;2022-11-20T04:18:44;101928.27;;;18.69;44.16
55460;BME280;41326;45.302;-122.946;2022-11-20T04:21:14;101932.29;;;18.61;44.23
55460;BME280;41326;45.302;-122.946;2022-11-20T04:23:44;101940.12;;;18.46;44.65
55460;BME280;41326;45.302;-122.946;2022-11-20T04:26:15;101944.53;;;18.38;44.72
55460;BME280;41326;45.302;-122.946;2022-11-20T04:28:45;101948.67;;;18.36;44.65
55460;BME280;41326;45.302;-122.946;2022-11-20T04:31:17;101948.09;;;18.35;44.60
55460;BME280;41326;45.302;-122.946;2022-11-20T04:33:45;101951.70;;;18.33;44.50
55460;BME280;41326;45.302;-122.946;2022-11-20T04:36:17;101948.55;;;18.52;44.00
55460;BME280;41326;45.302;-122.946;2022-11-20T04:38:46;101953.07;;;18.71;43.59
55460;BME280;41326;45.302;-122.946;2022-11-20T04:41:19;101953.01;;;18.66;43.78
55460;BME280;41326;45.302;-122.946;2022-11-20T04:43:47;101961.31;;;18.57;43.93
55460;BME280;41326;45.302;-122.946;2022-11-20T04:46:17;101964.92;;;18.46;44.12
55460;BME280;41326;45.302;-122.946;2022-11-20T04:48:47;101967.81;;;18.46;43.86
55460;BME280;41326;45.302;-122.946;2022-11-20T04:51:17;101971.03;;;18.37;44.13
55460;BME280;41326;45.302;-122.946;2022-11-20T04:53:48;101968.28;;;18.25;44.36
55460;BME280;41326;45.302;-122.946;2022-11-20T04:56:19;101965.42;;;18.19;44.55
55460;BME280;41326;45.302;-122.946;2022-11-20T04:58:49;101966.92;;;18.11;44.62
55460;BME280;41326;45.302;-122.946;2022-11-20T05:01:21;101963.37;;;18.26;43.84
55460;BME280;41326;45.302;-122.946;2022-11-20T05:03:50;101960.39;;;18.38;43.71
55460;BME280;41326;45.302;-122.946;2022-11-20T05:06:21;101963.23;;;18.33;43.96
55460;BME280;41326;45.302;-122.946;2022-11-20T05:08:50;101964.39;;;18.33;43.70
55460;BME280;41326;45.302;-122.946;2022-11-20T05:11:21;101969.85;;;18.27;43.95
55460;BME280;41326;45.302;-122.946;2022-11-20T05:13:51;101971.43;;;18.16;44.31
55460;BME280;41326;45.302;-122.946;2022-11-20T05:16:22;101969.05;;;18.09;44.50
55460;BME280;41326;45.302;-122.946;2022-11-20T05:18:51;101975.56;;;18.03;44.70
55460;BME280;41326;45.302;-122.946;2022-11-20T05:21:21;101978.44;;;18.02;44.65
55460;BME280;41326;45.302;-122.946;2022-11-20T05:23:51;101976.91;;;17.91;44.93
55460;BME280;41326;45.302;-122.946;2022-11-20T05:26:23;101977.91;;;17.93;44.80
55460;BME280;41326;45.302;-122.946;2022-11-20T05:28:52;101982.95;;;17.88;44.86
55460;BME280;41326;45.302;-122.946;2022-11-20T05:31:24;101984.35;;;17.88;44.78
55460;BME280;41326;45.302;-122.946;2022-11-20T05:33:53;101987.73;;;17.82;44.90
55460;BME280;41326;45.302;-122.946;2022-11-20T05:36:24;101985.39;;;17.79;44.99
55460;BME280;41326;45.302;-122.946;2022-11-20T05:38:53;101988.59;;;17.71;45.29
55460;BME280;41326;45.302;-122.946;2022-11-20T05:41:24;101994.37;;;17.69;45.25
55460;BME280;41326;45.302;-122.946;2022-11-20T05:43:55;101994.81;;;17.68;45.26
55460;BME280;41326;45.302;-122.946;2022-11-20T05:46:26;101998.17;;;17.63;45.37
55460;BME280;41326;45.302;-122.946;2022-11-20T05:48:54;101995.91;;;17.63;45.12
55460;BME280;41326;45.302;-122.946;2022-11-20T05:51:25;101993.19;;;17.60;45.21
55460;BME280;41326;45.302;-122.946;2022-11-20T05:53:56;101994.62;;;17.55;45.39
55460;BME280;41326;45.302;-122.946;2022-11-20T05:56:27;101996.14;;;17.54;45.32
55460;BME280;41326;45.302;-122.946;2022-11-20T05:58:57;101999.03;;;17.51;45.37
55460;BME280;41326;45.302;-122.946;2022-11-20T06:01:27;102000.24;;;17.52;45.29
55460;BME280;41326;45.302;-122.946;2022-11-20T06:03:58;102010.81;;;17.44;45.55
55460;BME280;41326;45.302;-122.946;2022-11-20T06:06:27;102018.55;;;17.41;45.72
55460;BME280;41326;45.302;-122.946;2022-11-20T06:08:58;102014.96;;;17.38;45.63
55460;BME280;41326;45.302;-122.946;2022-11-20T06:12:46;102017.30;;;17.36;45.64
55460;BME280;41326;45.302;-122.946;2022-11-20T06:15:17;102014.28;;;17.34;45.67
55460;BME280;41326;45.302;-122.946;2022-11-20T06:17:51;102018.05;;;17.29;45.76
55460;BME280;41326;45.302;-122.946;2022-11-20T06:20:18;102020.01;;;17.27;45.83
55460;BME280;41326;45.302;-122.946;2022-11-20T06:22:48;102018.01;;;17.26;45.77
55460;BME280;41326;45.302;-122.946;2022-11-20T06:25:19;102018.30;;;17.26;45.72
55460;BME280;41326;45.302;-122.946;2022-11-20T06:27:49;102018.66;;;17.19;45.89
55460;BME280;41326;45.302;-122.946;2022-11-20T06:30:19;102014.91;;;17.19;45.75
55460;BME280;41326;45.302;-122.946;2022-11-20T06:32:49;102015.57;;;17.18;45.75
55460;BME280;41326;45.302;-122.946;2022-11-20T06:35:20;102011.87;;;17.16;45.87
55460;BME280;41326;45.302;-122.946;2022-11-20T06:37:51;102006.71;;;17.11;45.94
55460;BME280;41326;45.302;-122.946;2022-11-20T06:40:20;102000.42;;;17.10;45.95
55460;BME280;41326;45.302;-122.946;2022-11-20T06:42:50;101996.08;;;17.06;46.07
55460;BME280;41326;45.302;-122.946;2022-11-20T06:45:21;101995.57;;;17.02;46.11
55460;BME280;41326;45.302;-122.946;2022-11-20T06:47:51;101998.71;;;16.98;46.16
55460;BME280;41326;45.302;-122.946;2022-11-20T06:50:21;101996.23;;;16.98;46.01
55460;BME280;41326;45.302;-122.946;2022-11-20T06:53:00;101996.80;;;16.98;46.04
55460;BME280;41326;45.302;-122.946;2022-11-20T06:55:28;102001.09;;;16.96;46.07
55460;BME280;41326;45.302;-122.946;2022-11-20T06:57:58;102000.99;;;16.91;46.13
55460;BME280;41326;45.302;-122.946;2022-11-20T07:00:28;102004.61;;;16.87;46.26
55460;BME280;41326;45.302;-122.946;2022-11-20T07:02:58;102010.60;;;16.83;46.41
55460;BME280;41326;45.302;-122.946;2022-11-20T07:05:29;102011.09;;;16.80;46.47
55460;BME280;41326;45.302;-122.946;2022-11-20T07:08:02;102011.71;;;16.81;46.34
55460;BME280;41326;45.302;-122.946;2022-11-20T07:10:30;102013.88;;;16.79;46.29
55460;BME280;41326;45.302;-122.946;2022-11-20T07:13:01;102013.74;;;16.78;46.35
55460;BME280;41326;45.302;-122.946;2022-11-20T07:15:31;102016.42;;;16.76;46.37
55460;BME280;41326;45.302;-122.946;2022-11-20T07:18:01;102017.57;;;16.71;46.57
55460;BME280;41326;45.302;-122.946;2022-11-20T07:20:31;102018.30;;;16.68;46.56
55460;BME280;41326;45.302;-122.946;2022-11-20T07:23:01;102022.33;;;16.65;46.62
55460;BME280;41326;45.302;-122.946;2022-11-20T07:25:33;102020.37;;;16.62;46.65
55460;BME280;41326;45.302;-122.946;2022-11-20T07:28:03;102025.41;;;16.60;46.55
55460;BME280;41326;45.302;-122.946;2022-11-20T07:30:33;102028.88;;;16.57;46.68
55460;BME280;41326;45.302;-122.946;2022-11-20T07:33:03;102030.80;;;16.55;46.95
55460;BME280;41326;45.302;-122.946;2022-11-20T07:35:33;102033.00;;;16.54;46.94
55460;BME280;41326;45.302;-122.946;2022-11-20T07:38:05;102033.84;;;16.51;46.87
55460;BME280;41326;45.302;-122.946;2022-11-20T07:40:34;102032.02;;;16.48;46.82
55460;BME280;41326;45.302;-122.946;2022-11-20T07:43:05;102033.28;;;16.47;46.85
55460;BME280;41326;45.302;-122.946;2022-11-20T07:45:35;102033.57;;;16.42;47.03
55460;BME280;41326;45.302;-122.946;2022-11-20T07:48:05;102032.46;;;16.39;47.07
55460;BME280;41326;45.302;-122.946;2022-11-20T07:50:36;102032.47;;;16.38;47.08
55460;BME280;41326;45.302;-122.946;2022-11-20T07:53:08;102038.46;;;16.35;47.43
55460;BME280;41326;45.302;-122.946;2022-11-20T07:55:37;102042.23;;;16.33;47.49
55460;BME280;41326;45.302;-122.946;2022-11-20T07:58:07;102042.11;;;16.32;47.46
55460;BME280;41326;45.302;-122.946;2022-11-20T08:00:38;102043.46;;;16.32;47.56
55460;BME280;41326;45.302;-122.946;2022-11-20T08:03:09;102040.27;;;16.30;47.55
55460;BME280;41326;45.302;-122.946;2022-11-20T08:05:38;102038.63;;;16.28;47.62
55460;BME280;41326;45.302;-122.946;2022-11-20T08:08:08;102036.02;;;16.25;47.54
55460;BME280;41326;45.302;-122.946;2022-11-20T08:10:38;102032.79;;;16.24;47.58
55460;BME280;41326;45.302;-122.946;2022-11-20T08:13:08;102029.49;;;16.20;47.85
55460;BME280;41326;45.302;-122.946;2022-11-20T08:15:39;102027.80;;;16.19;47.85
55460;BME280;41326;45.302;-122.946;2022-11-20T08:18:10;102025.88;;;16.17;47.81
55460;BME280;41326;45.302;-122.946;2022-11-20T08:20:40;102020.89;;;16.17;47.73
55460;BME280;41326;45.302;-122.946;2022-11-20T08:23:10;102019.43;;;16.12;47.88
55460;BME280;41326;45.302;-122.946;2022-11-20T08:25:41;102018.69;;;16.09;48.00
55460;BME280;41326;45.302;-122.946;2022-11-20T08:28:11;102018.68;;;16.05;48.02
55460;BME280;41326;45.302;-122.946;2022-11-20T08:30:41;102017.74;;;16.04;48.01
55460;BME280;41326;45.302;-122.946;2022-11-20T08:33:12;102019.16;;;16.03;48.08
55460;BME280;41326;45.302;-122.946;2022-11-20T08:35:41;102019.72;;;16.00;48.13
55460;BME280;41326;45.302;-122.946;2022-11-20T08:38:12;102018.56;;;15.97;48.13
55460;BME280;41326;45.302;-122.946;2022-11-20T08:40:42;102018.75;;;15.97;48.02
55460;BME280;41326;45.302;-122.946;2022-11-20T08:43:12;102014.67;;;15.93;48.13
55460;BME280;41326;45.302;-122.946;2022-11-20T08:45:43;102009.18;;;15.94;48.02
55460;BME280;41326;45.302;-122.946;2022-11-20T08:48:13;102008.90;;;15.92;48.12
55460;BME280;41326;45.302;-122.946;2022-11-20T08:50:43;102006.94;;;15.87;48.35
55460;BME280;41326;45.302;-122.946;2022-11-20T08:53:13;102006.60;;;15.85;48.48
55460;BME280;41326;45.302;-122.946;2022-11-20T08:55:44;102009.01;;;15.84;48.40
55460;BME280;41326;45.302;-122.946;2022-11-20T08:58:14;102014.77;;;15.82;48.42
55460;BME280;41326;45.302;-122.946;2022-11-20T09:00:45;102016.68;;;15.80;48.46
55460;BME280;41326;45.302;-122.946;2022-11-20T09:03:15;102012.42;;;15.77;48.47
55460;BME280;41326;45.302;-122.946;2022-11-20T09:05:45;102014.76;;;15.76;48.48
55460;BME280;41326;45.302;-122.946;2022-11-20T09:08:15;102008.93;;;15.75;48.51
55460;BME280;41326;45.302;-122.946;2022-11-20T09:10:45;102007.19;;;15.72;48.67
55460;BME280;41326;45.302;-122.946;2022-11-20T09:13:16;102012.14;;;15.69;48.99
55460;BME280;41326;45.302;-122.946;2022-11-20T09:15:46;102016.74;;;15.67;48.89
55460;BME280;41326;45.302;-122.946;2022-11-20T09:18:16;102012.75;;;15.66;48.79
55460;BME280;41326;45.302;-122.946;2022-11-20T09:20:48;102012.07;;;15.63;48.79
55460;BME280;41326;45.302;-122.946;2022-11-20T09:23:17;102014.26;;;15.61;48.78
55460;BME280;41326;45.302;-122.946;2022-11-20T09:25:48;102013.83;;;15.60;48.64
55460;BME280;41326;45.302;-122.946;2022-11-20T09:28:18;102020.81;;;15.59;48.66
55460;BME280;41326;45.302;-122.946;2022-11-20T09:30:49;102019.21;;;15.55;48.89
55460;BME280;41326;45.302;-122.946;2022-11-20T09:33:19;102016.35;;;15.53;48.92
55460;BME280;41326;45.302;-122.946;2022-11-20T09:35:49;102018.36;;;15.54;48.80
55460;BME280;41326;45.302;-122.946;2022-11-20T09:38:20;102018.62;;;15.52;48.84
55460;BME280;41326;45.302;-122.946;2022-11-20T09:40:55;102020.33;;;15.49;48.84
55460;BME280;41326;45.302;-122.946;2022-11-20T09:43:24;102020.88;;;15.45;48.93
55460;BME280;41326;45.302;-122.946;2022-11-20T09:46:05;102019.88;;;15.46;48.79
55460;BME280;41326;45.302;-122.946;2022-11-20T09:48:29;102026.17;;;15.45;48.84
55460;BME280;41326;45.302;-122.946;2022-11-20T09:50:55;102017.97;;;15.42;49.08
55460;BME280;41326;45.302;-122.946;2022-11-20T09:53:29;102014.99;;;15.39;49.16
55460;BME280;41326;45.302;-122.946;2022-11-20T09:55:52;102014.85;;;15.37;49.16
55460;BME280;41326;45.302;-122.946;2022-11-20T09:58:29;102013.83;;;15.36;49.08
55460;BME280;41326;45.302;-122.946;2022-11-20T10:00:53;102010.12;;;15.35;49.07
55460;BME280;41326;45.302;-122.946;2022-11-20T10:03:30;102009.90;;;15.31;49.09
55460;BME280;41326;45.302;-122.946;2022-11-20T10:05:57;102012.60;;;15.30;49.06
55460;BME280;41326;45.302;-122.946;2022-11-20T10:08:27;102010.49;;;15.29;49.08
55460;BME280;41326;45.302;-122.946;2022-11-20T10:11:00;102012.38;;;15.24;49.31
55460;BME280;41326;45.302;-122.946;2022-11-20T10:13:34;102017.33;;;15.21;49.36
55460;BME280;41326;45.302;-122.946;2022-11-20T10:16:03;102019.77;;;15.20;49.38
55460;BME280;41326;45.302;-122.946;2022-11-20T10:18:37;102027.23;;;15.19;49.38
55460;BME280;41326;45.302;-122.946;2022-11-20T10:21:03;102030.26;;;15.16;49.46
55460;BME280;41326;45.302;-122.946;2022-11-20T10:26:01;102037.95;;;15.11;49.58
55460;BME280;41326;45.302;-122.946;2022-11-20T10:28:39;102038.42;;;15.09;49.50
55460;BME280;41326;45.302;-122.946;2022-11-20T10:31:02;102035.60;;;15.07;49.64
55460;BME280;41326;45.302;-122.946;2022-11-20T10:33:29;102036.04;;;15.09;49.41
55460;BME280;41326;45.302;-122.946;2022-11-20T10:36:05;102034.71;;;15.03;49.59
55460;BME280;41326;45.302;-122.946;2022-11-20T10:38:31;102039.96;;;15.06;49.59
55460;BME280;41326;45.302;-122.946;2022-11-20T10:41:00;102046.95;;;15.05;49.60
55460;BME280;41326;45.302;-122.946;2022-11-20T10:43:33;102049.91;;;15.03;49.52
55460;BME280;41326;45.302;-122.946;2022-11-20T10:46:03;102046.83;;;15.04;49.40
55460;BME280;41326;45.302;-122.946;2022-11-20T10:48:30;102043.93;;;15.01;49.38
55460;BME280;41326;45.302;-122.946;2022-11-20T10:51:11;102040.00;;;15.00;49.45
55460;BME280;41326;45.302;-122.946;2022-11-20T10:53:42;102041.47;;;14.98;49.55
55460;BME280;41326;45.302;-122.946;2022-11-20T10:56:05;102040.25;;;14.96;49.54
55460;BME280;41326;45.302;-122.946;2022-11-20T10:58:37;102038.23;;;14.94;49.54
55460;BME280;41326;45.302;-122.946;2022-11-20T11:01:05;102038.93;;;14.93;49.50
55460;BME280;41326;45.302;-122.946;2022-11-20T11:03:32;102041.48;;;14.89;49.45
55460;BME280;41326;45.302;-122.946;2022-11-20T11:06:07;102041.20;;;14.88;49.46
55460;BME280;41326;45.302;-122.946;2022-11-20T11:08:35;102040.98;;;14.83;49.53
55460;BME280;41326;45.302;-122.946;2022-11-20T11:11:07;102044.75;;;14.86;49.44
55460;BME280;41326;45.302;-122.946;2022-11-20T11:13:33;102047.15;;;14.83;49.40
55460;BME280;41326;45.302;-122.946;2022-11-20T11:16:03;102048.12;;;14.84;49.33
55460;BME280;41326;45.302;-122.946;2022-11-20T11:18:34;102051.16;;;14.82;49.34
55460;BME280;41326;45.302;-122.946;2022-11-20T11:21:04;102058.94;;;14.81;49.22
55460;BME280;41326;45.302;-122.946;2022-11-20T11:23:37;102059.16;;;14.80;49.26
55460;BME280;41326;45.302;-122.946;2022-11-20T11:26:05;102058.38;;;14.78;49.24
55460;BME280;41326;45.302;-122.946;2022-11-20T11:28:34;102059.87;;;14.76;49.25
55460;BME280;41326;45.302;-122.946;2022-11-20T11:31:04;102062.54;;;14.72;49.50
55460;BME280;41326;45.302;-122.946;2022-11-20T11:33:35;102065.20;;;14.72;49.57
55460;BME280;41326;45.302;-122.946;2022-11-20T11:38:38;102064.07;;;14.70;49.54
55460;BME280;41326;45.302;-122.946;2022-11-20T11:41:06;102070.45;;;14.68;49.50
55460;BME280;41326;45.302;-122.946;2022-11-20T11:43:37;102066.14;;;14.67;49.54
55460;BME280;41326;45.302;-122.946;2022-11-20T11:46:09;102071.94;;;14.66;49.52
55460;BME280;41326;45.302;-122.946;2022-11-20T11:48:36;102073.85;;;14.63;49.57
55460;BME280;41326;45.302;-122.946;2022-11-20T11:51:08;102076.60;;;14.60;49.66
55460;BME280;41326;45.302;-122.946;2022-11-20T11:53:39;102081.02;;;14.58;49.80
55460;BME280;41326;45.302;-122.946;2022-11-20T11:56:12;102074.23;;;14.64;49.37
55460;BME280;41326;45.302;-122.946;2022-11-20T11:58:45;102064.88;;;14.81;48.78
55460;BME280;41326;45.302;-122.946;2022-11-20T12:01:20;102061.86;;;14.94;48.44
55460;BME280;41326;45.302;-122.946;2022-11-20T12:03:50;102066.09;;;15.02;48.04
55460;BME280;41326;45.302;-122.946;2022-11-20T12:06:12;102059.09;;;15.02;47.95
55460;BME280;41326;45.302;-122.946;2022-11-20T12:08:46;102061.78;;;15.01;47.85
55460;BME280;41326;45.302;-122.946;2022-11-20T12:11:16;102063.94;;;14.92;48.16
55460;BME280;41326;45.302;-122.946;2022-11-20T12:13:48;102065.85;;;14.86;48.28
55460;BME280;41326;45.302;-122.946;2022-11-20T12:16:11;102065.41;;;14.83;48.38
55460;BME280;41326;45.302;-122.946;2022-11-20T12:18:40;102067.15;;;14.79;48.43
55460;BME280;41326;45.302;-122.946;2022-11-20T12:21:20;102065.90;;;14.76;48.44
55460;BME280;41326;45.302;-122.946;2022-11-20T12:23:48;102057.29;;;14.68;48.71
55460;BME280;41326;45.302;-122.946;2022-11-20T12:26:18;102063.39;;;14.64;48.82
55460;BME280;41326;45.302;-122.946;2022-11-20T12:28:53;102065.30;;;14.61;48.77
55460;BME280;41326;45.302;-122.946;2022-11-20T12:33:54;102060.26;;;14.95;47.71
55460;BME280;41326;45.302;-122.946;2022-11-20T12:36:21;102051.97;;;15.09;47.30
55460;BME280;41326;45.302;-122.946;2022-11-20T12:38:58;102058.23;;;15.11;47.22
55460;BME280;41326;45.302;-122.946;2022-11-20T12:41:19;102055.94;;;15.02;47.39
55460;BME280;41326;45.302;-122.946;2022-11-20T12:43:48;102057.52;;;14.97;47.51
55460;BME280;41326;45.302;-122.946;2022-11-20T12:46:19;102062.61;;;14.91;47.63